createdAt,value
2023-03-02T00:01:51.203Z,73.67
2023-03-02T00:04:21.833Z,70.61
2023-03-02T00:06:52.236Z,67.10
2023-03-02T00:09:20.318Z,64.33
2023-03-02T00:11:48.478Z,58.11
2023-03-02T00:14:16.550Z,51.98
2023-03-02T00:16:44.726Z,50.90
2023-03-02T00:19:12.800Z,51.25
2023-03-02T00:21:41.809Z,52.00
2023-03-02T00:24:10.159Z,52.94
2023-03-02T00:26:38.539Z,53.86
2023-03-02T00:29:06.812Z,54.74
2023-03-02T00:31:35.253Z,55.82
2023-03-02T00:34:03.770Z,56.96
2023-03-02T00:36:32.459Z,57.77
2023-03-02T00:39:00.638Z,58.58
2023-03-02T00:41:29.205Z,59.80
2023-03-02T00:43:58.001Z,64.83
2023-03-02T00:46:28.742Z,73.08
2023-03-02T00:48:57.102Z,72.98
2023-03-02T00:51:25.386Z,70.26
2023-03-02T00:53:53.553Z,68.02
2023-03-02T00:56:21.926Z,64.82
2023-03-02T00:58:50.612Z,57.98
2023-03-02T01:01:19.498Z,51.70
2023-03-02T01:03:50.746Z,50.51
2023-03-02T01:06:20.908Z,50.80
2023-03-02T01:08:49.352Z,51.42
2023-03-02T01:11:20.617Z,52.25
2023-03-02T01:13:50.411Z,52.83
2023-03-02T01:16:18.747Z,50.81
2023-03-02T01:18:47.157Z,54.09
2023-03-02T01:21:16.558Z,55.75
2023-03-02T01:23:44.738Z,57.08
2023-03-02T01:26:12.911Z,58.20
2023-03-02T01:28:41.074Z,59.51
2023-03-02T01:31:09.529Z,64.98
2023-03-02T01:33:37.730Z,73.43
2023-03-02T01:36:06.609Z,72.40
2023-03-02T01:38:34.843Z,69.18
2023-03-02T01:41:03.061Z,65.90
2023-03-02T01:43:31.234Z,64.29
2023-03-02T01:46:20.709Z,59.34
2023-03-02T01:49:04.138Z,52.50
2023-03-02T01:51:46.139Z,51.32
2023-03-02T01:54:23.160Z,52.01
2023-03-02T01:56:59.212Z,52.48
2023-03-02T01:59:28.567Z,53.49
2023-03-02T02:01:59.197Z,54.84
2023-03-02T02:04:29.414Z,56.29
2023-03-02T02:07:02.176Z,57.25
2023-03-02T02:09:33.840Z,58.04
2023-03-02T02:12:02.861Z,59.25
2023-03-02T02:14:31.015Z,64.13
2023-03-02T02:16:59.244Z,73.37
2023-03-02T02:19:49.882Z,72.50
2023-03-02T02:22:30.244Z,70.08
2023-03-02T02:25:02.102Z,66.39
2023-03-02T02:27:34.267Z,63.16
2023-03-02T02:30:04.773Z,56.59
2023-03-02T02:32:35.755Z,51.83
2023-03-02T02:35:22.974Z,51.17
2023-03-02T02:37:54.949Z,51.25
2023-03-02T02:40:41.004Z,52.26
2023-03-02T02:43:13.621Z,52.74
2023-03-02T02:45:42.131Z,54.15
2023-03-02T02:48:19.447Z,55.46
2023-03-02T02:50:47.708Z,56.36
2023-03-02T02:53:40.984Z,57.75
2023-03-02T02:56:10.998Z,57.99
2023-03-02T02:58:46.147Z,59.75
2023-03-02T03:01:15.897Z,64.30
2023-03-02T03:03:51.514Z,73.74
2023-03-02T03:06:25.897Z,74.57
2023-03-02T03:08:57.795Z,71.18
2023-03-02T03:11:33.051Z,67.59
2023-03-02T03:14:16.134Z,64.29
2023-03-02T03:16:47.085Z,57.62
2023-03-02T03:19:23.526Z,51.22
2023-03-02T03:21:54.456Z,50.15
2023-03-02T03:24:24.580Z,50.79
2023-03-02T03:26:54.492Z,51.52
2023-03-02T03:29:25.244Z,52.14
2023-03-02T03:31:56.192Z,52.92
2023-03-02T03:34:25.464Z,54.28
2023-03-02T03:36:54.038Z,55.74
2023-03-02T03:39:22.436Z,57.04
2023-03-02T03:41:50.950Z,58.26
2023-03-02T03:44:19.272Z,59.61
2023-03-02T03:46:47.445Z,65.13
2023-03-02T03:49:16.025Z,74.47
2023-03-02T03:51:44.713Z,74.62
2023-03-02T03:54:13.084Z,71.61
2023-03-02T03:56:45.249Z,68.09
2023-03-02T03:59:19.872Z,64.86
2023-03-02T04:01:55.035Z,57.74
2023-03-02T04:04:28.507Z,51.53
2023-03-02T04:06:57.097Z,50.55
2023-03-02T04:09:26.694Z,50.74
2023-03-02T04:11:56.093Z,51.37
2023-03-02T04:14:25.702Z,52.05
2023-03-02T04:16:55.102Z,53.00
2023-03-02T04:19:25.012Z,54.12
2023-03-02T04:21:58.582Z,55.08
2023-03-02T04:24:27.806Z,56.52
2023-03-02T04:26:58.232Z,57.39
2023-03-02T04:29:28.248Z,58.20
2023-03-02T04:31:57.010Z,59.46
2023-03-02T04:34:26.956Z,60.37
2023-03-02T04:36:55.950Z,64.57
2023-03-02T04:39:24.945Z,73.69
2023-03-02T04:41:54.142Z,74.18
2023-03-02T04:44:22.616Z,71.05
2023-03-02T04:46:51.447Z,68.12
2023-03-02T04:49:20.603Z,65.24
2023-03-02T04:51:50.108Z,58.83
2023-03-02T04:54:22.810Z,52.10
2023-03-02T04:56:51.889Z,50.77
2023-03-02T04:59:24.165Z,51.01
2023-03-02T05:01:54.720Z,51.66
2023-03-02T05:04:23.169Z,52.53
2023-03-02T05:06:51.529Z,53.22
2023-03-02T05:09:21.317Z,54.23
2023-03-02T05:11:49.408Z,55.23
2023-03-02T05:14:17.478Z,56.30
2023-03-02T05:16:45.655Z,57.52
2023-03-02T05:19:13.826Z,58.52
2023-03-02T05:21:42.100Z,59.74
2023-03-02T05:24:13.134Z,63.82
2023-03-02T05:26:41.923Z,74.01
2023-03-02T05:29:10.095Z,73.38
2023-03-02T05:31:43.553Z,69.81
2023-03-02T05:34:13.961Z,67.53
2023-03-02T05:36:42.702Z,64.65
2023-03-02T05:39:11.181Z,58.49
2023-03-02T05:41:39.454Z,52.39
2023-03-02T05:44:09.776Z,51.07
2023-03-02T05:46:38.542Z,51.04
2023-03-02T05:49:06.952Z,51.59
2023-03-02T05:51:35.129Z,52.51
2023-03-02T05:54:03.290Z,53.52
2023-03-02T05:56:32.005Z,54.69
2023-03-02T05:59:00.558Z,55.76
2023-03-02T06:01:28.823Z,57.01
2023-03-02T06:03:56.997Z,58.11
2023-03-02T06:06:25.171Z,59.14
2023-03-02T06:08:53.344Z,60.30
2023-03-02T06:11:21.515Z,64.59
2023-03-02T06:13:49.698Z,73.83
2023-03-02T06:16:17.916Z,73.32
2023-03-02T06:18:46.131Z,70.57
2023-03-02T06:21:14.609Z,67.61
2023-03-02T06:23:42.791Z,64.62
2023-03-02T06:26:12.014Z,62.93
2023-03-02T06:28:51.860Z,57.76
2023-03-02T06:31:22.188Z,52.91
2023-03-02T06:33:50.640Z,52.40
2023-03-02T06:36:18.989Z,52.76
2023-03-02T06:38:47.380Z,53.73
2023-03-02T06:41:16.178Z,55.08
2023-03-02T06:43:44.565Z,55.92
2023-03-02T06:46:12.889Z,56.91
2023-03-02T06:48:41.505Z,57.95
2023-03-02T06:51:09.779Z,59.00
2023-03-02T06:53:38.267Z,60.05
2023-03-02T06:56:07.401Z,64.33
2023-03-02T06:58:36.433Z,71.26
2023-03-02T07:01:04.881Z,71.47
2023-03-02T07:03:33.573Z,69.87
2023-03-02T07:06:02.501Z,67.86
2023-03-02T07:08:30.770Z,65.40
2023-03-02T07:10:58.975Z,64.37
2023-03-02T07:13:27.425Z,63.38
2023-03-02T07:15:55.601Z,63.10
2023-03-02T07:18:23.988Z,59.40
2023-03-02T07:20:52.435Z,54.19
2023-03-02T07:23:20.529Z,53.44
2023-03-02T07:25:48.689Z,53.86
2023-03-02T07:28:16.964Z,55.04
2023-03-02T07:30:45.176Z,56.15
2023-03-02T07:33:13.624Z,57.37
2023-03-02T07:35:41.746Z,58.57
2023-03-02T07:38:09.961Z,59.64
2023-03-02T07:40:44.531Z,64.43
2023-03-02T07:43:12.758Z,71.98
2023-03-02T07:45:41.033Z,71.17
2023-03-02T07:48:09.207Z,69.25
2023-03-02T07:50:37.589Z,66.46
2023-03-02T07:53:05.754Z,63.76
2023-03-02T07:55:33.933Z,58.37
2023-03-02T07:58:02.102Z,52.87
2023-03-02T08:00:30.281Z,51.50
2023-03-02T08:02:58.465Z,51.75
2023-03-02T08:05:26.822Z,52.42
2023-03-02T08:07:55.095Z,53.29
2023-03-02T08:10:23.281Z,54.46
2023-03-02T08:12:51.458Z,55.33
2023-03-02T08:15:19.615Z,56.30
2023-03-02T08:17:48.401Z,57.36
2023-03-02T08:20:16.575Z,58.81
2023-03-02T08:22:44.649Z,59.48
2023-03-02T08:25:12.925Z,64.97
2023-03-02T08:27:41.194Z,68.99
2023-03-02T08:30:10.888Z,66.17
2023-03-02T08:32:39.394Z,65.07
2023-03-02T08:35:08.594Z,62.82
2023-03-02T08:37:36.955Z,59.00
2023-03-02T08:40:05.951Z,54.47
2023-03-02T08:42:34.135Z,53.67
2023-03-02T08:45:02.411Z,52.89
2023-03-02T08:47:30.668Z,53.21
2023-03-02T08:49:58.945Z,53.84
2023-03-02T08:52:27.216Z,54.30
2023-03-02T08:54:55.454Z,54.66
2023-03-02T08:57:23.671Z,55.16
2023-03-02T08:59:52.956Z,55.36
2023-03-02T09:02:21.134Z,55.64
2023-03-02T09:04:49.383Z,55.20
2023-03-02T09:07:17.573Z,55.67
2023-03-02T09:09:46.066Z,55.22
2023-03-02T09:12:14.241Z,55.15
2023-03-02T09:14:42.408Z,55.06
2023-03-02T09:17:13.250Z,54.96
2023-03-02T09:19:44.505Z,54.12
2023-03-02T09:22:13.065Z,53.57
2023-03-02T09:24:41.233Z,53.64
2023-03-02T09:27:09.409Z,53.46
2023-03-02T09:29:37.580Z,53.87
2023-03-02T09:32:05.835Z,53.27
2023-03-02T09:34:34.237Z,52.73
2023-03-02T09:37:02.610Z,53.28
2023-03-02T09:39:30.884Z,53.09
2023-03-02T09:42:11.242Z,52.23
2023-03-02T09:44:57.641Z,50.66
2023-03-02T09:47:35.978Z,50.31
2023-03-02T09:50:27.469Z,50.66
2023-03-02T09:53:24.110Z,51.46
2023-03-02T09:55:55.353Z,50.00
2023-03-02T09:58:25.775Z,49.85
2023-03-02T10:00:53.949Z,50.65
2023-03-02T10:03:24.244Z,50.37
2023-03-02T10:05:57.302Z,50.36
2023-03-02T10:08:28.399Z,48.47
2023-03-02T10:11:12.852Z,48.20
2023-03-02T10:13:47.552Z,48.07
2023-03-02T10:16:34.897Z,47.86
2023-03-02T10:19:25.246Z,47.74
2023-03-02T10:22:03.106Z,48.31
2023-03-02T10:24:57.581Z,47.51
2023-03-02T10:27:50.970Z,46.75
2023-03-02T10:30:37.910Z,47.02
2023-03-02T10:33:14.297Z,46.65
2023-03-02T10:35:47.954Z,45.98
2023-03-02T10:38:18.661Z,46.13
2023-03-02T10:41:00.327Z,46.15
2023-03-02T10:43:37.620Z,45.69
2023-03-02T10:46:11.348Z,44.01
2023-03-02T10:48:55.550Z,43.40
2023-03-02T10:51:23.849Z,43.44
2023-03-02T10:54:07.077Z,42.98
2023-03-02T10:56:35.654Z,40.86
2023-03-02T10:59:29.843Z,41.74
2023-03-02T11:02:23.506Z,42.30
2023-03-02T11:05:00.546Z,42.98
2023-03-02T11:07:29.989Z,42.60
2023-03-02T11:10:18.847Z,41.74
2023-03-02T11:12:49.143Z,41.45
2023-03-02T11:15:17.141Z,41.20
2023-03-02T11:17:46.854Z,41.77
2023-03-02T11:20:24.132Z,40.73
2023-03-02T11:22:59.860Z,40.31
2023-03-02T11:25:40.439Z,41.00
2023-03-02T11:28:17.366Z,41.19
2023-03-02T11:30:49.186Z,41.17
2023-03-02T11:33:28.867Z,41.04
2023-03-02T11:36:03.340Z,40.31
2023-03-02T11:38:46.973Z,41.01
2023-03-02T11:41:31.672Z,41.24
2023-03-02T11:44:18.239Z,41.28
2023-03-02T11:46:49.664Z,41.04
2023-03-02T11:49:24.295Z,41.19
2023-03-02T11:55:06.329Z,42.14
2023-03-02T11:57:39.571Z,41.41
2023-03-02T12:00:38.714Z,41.50
2023-03-02T12:03:06.897Z,41.67
2023-03-02T12:05:38.943Z,41.97
2023-03-02T12:08:19.340Z,41.72
2023-03-02T12:11:00.028Z,41.91
2023-03-02T12:13:33.691Z,41.92
2023-03-02T12:16:02.490Z,41.83
2023-03-02T12:18:42.526Z,42.27
2023-03-02T12:21:18.507Z,42.54
2023-03-02T12:23:49.712Z,41.79
2023-03-02T12:26:21.165Z,41.84
2023-03-02T12:29:09.931Z,42.20
2023-03-02T12:31:48.517Z,42.46
2023-03-02T12:34:35.264Z,42.37
2023-03-02T12:37:30.774Z,42.20
2023-03-02T12:40:26.092Z,42.14
2023-03-02T12:43:00.317Z,42.11
2023-03-02T12:45:50.904Z,41.91
2023-03-02T12:48:29.592Z,42.17
2023-03-02T12:51:01.850Z,42.51
2023-03-02T12:53:31.162Z,42.24
2023-03-02T12:55:59.570Z,42.54
2023-03-02T12:58:29.449Z,42.31
2023-03-02T13:01:02.552Z,42.31
2023-03-02T13:03:31.734Z,42.09
2023-03-02T13:06:15.783Z,41.88
2023-03-02T13:08:46.386Z,42.32
2023-03-02T13:11:21.830Z,42.46
2023-03-02T13:13:50.093Z,42.70
2023-03-02T13:16:33.866Z,42.81
2023-03-02T13:19:04.284Z,42.78
2023-03-02T13:21:38.703Z,42.92
2023-03-02T13:24:31.554Z,43.07
2023-03-02T13:27:05.856Z,43.25
2023-03-02T13:29:34.571Z,43.44
2023-03-02T13:32:19.289Z,43.80
2023-03-02T13:34:59.259Z,43.76
2023-03-02T13:37:37.840Z,43.70
2023-03-02T13:40:40.023Z,43.90
2023-03-02T13:43:21.735Z,44.09
2023-03-02T13:46:05.242Z,44.05
2023-03-02T13:48:33.956Z,44.38
2023-03-02T13:51:18.941Z,44.67
2023-03-02T13:53:56.917Z,44.44
2023-03-02T13:56:38.238Z,44.58
2023-03-02T13:59:14.769Z,44.71
2023-03-02T14:01:44.297Z,44.74
2023-03-02T14:04:14.303Z,44.90
2023-03-02T14:06:42.560Z,44.79
2023-03-02T14:09:10.936Z,44.73
2023-03-02T14:11:41.553Z,44.79
2023-03-02T14:14:14.762Z,44.68
2023-03-02T14:16:43.131Z,44.43
2023-03-02T14:19:13.887Z,44.46
2023-03-02T14:21:43.556Z,44.68
2023-03-02T14:24:12.056Z,44.88
2023-03-02T14:26:45.183Z,44.89
2023-03-02T14:29:43.008Z,44.56
2023-03-02T14:32:13.359Z,44.76
2023-03-02T14:34:41.616Z,44.74
2023-03-02T14:37:15.745Z,44.92
2023-03-02T14:39:47.154Z,45.26
2023-03-02T14:42:17.081Z,45.45
2023-03-02T14:44:48.736Z,45.44
2023-03-02T14:47:19.584Z,45.84
2023-03-02T14:49:49.486Z,46.50
2023-03-02T14:52:23.632Z,46.98
2023-03-02T14:54:58.040Z,47.29
2023-03-02T14:57:28.544Z,47.66
2023-03-02T15:00:00.063Z,48.10
2023-03-02T15:02:28.866Z,48.90
2023-03-02T15:04:57.856Z,49.46
2023-03-02T15:07:28.215Z,50.18
2023-03-02T15:09:58.312Z,50.53
2023-03-02T15:12:26.440Z,50.85
2023-03-02T15:14:54.666Z,51.30
2023-03-02T15:17:23.253Z,52.17
2023-03-02T15:19:51.616Z,52.71
2023-03-02T15:22:19.810Z,53.32
2023-03-02T15:24:47.959Z,53.75
2023-03-02T15:27:16.137Z,54.28
2023-03-02T15:29:46.154Z,54.72
2023-03-02T15:32:15.212Z,55.45
2023-03-02T15:34:44.129Z,56.41
2023-03-02T15:37:12.835Z,57.91
2023-03-02T15:39:41.617Z,58.60
2023-03-02T15:42:10.813Z,59.21
2023-03-02T15:44:40.194Z,60.62
2023-03-02T15:47:08.367Z,60.96
2023-03-02T15:49:36.643Z,67.18
2023-03-02T15:52:05.029Z,69.98
2023-03-02T15:54:33.729Z,67.80
2023-03-02T15:57:01.875Z,63.75
2023-03-02T15:59:31.394Z,58.93
2023-03-02T16:01:59.894Z,55.72
2023-03-02T16:04:32.743Z,56.47
2023-03-02T16:07:01.221Z,57.32
2023-03-02T16:09:31.106Z,59.15
2023-03-02T16:11:59.311Z,60.54
2023-03-02T16:14:27.437Z,66.08
2023-03-02T16:16:55.703Z,68.52
2023-03-02T16:19:24.243Z,65.21
2023-03-02T16:21:52.409Z,63.19
2023-03-02T16:24:20.794Z,61.41
2023-03-02T16:26:51.130Z,58.50
2023-03-02T16:29:19.238Z,55.88
2023-03-02T16:31:47.983Z,56.32
2023-03-02T16:34:17.897Z,57.01
2023-03-02T16:36:46.053Z,57.96
2023-03-02T16:39:15.152Z,60.07
2023-03-02T16:41:44.142Z,65.54
2023-03-02T16:44:14.772Z,68.41
2023-03-02T16:46:43.964Z,67.82
2023-03-02T16:49:13.573Z,64.49
2023-03-02T16:51:42.982Z,64.59
2023-03-02T16:54:15.529Z,62.64
2023-03-02T16:56:45.579Z,59.53
2023-03-02T16:59:13.937Z,56.82
2023-03-02T17:01:42.296Z,57.63
2023-03-02T17:04:10.590Z,59.59
2023-03-02T17:06:40.161Z,63.75
2023-03-02T17:09:11.333Z,67.76
2023-03-02T17:11:40.633Z,64.97
2023-03-02T17:14:08.822Z,64.01
2023-03-02T17:16:36.987Z,63.69
2023-03-02T17:19:05.046Z,58.50
2023-03-02T17:21:33.322Z,55.36
2023-03-02T17:24:01.493Z,56.01
2023-03-02T17:26:29.973Z,57.55
2023-03-02T17:28:58.149Z,58.74
2023-03-02T17:31:26.461Z,60.08
2023-03-02T17:33:54.697Z,65.39
2023-03-02T17:36:22.831Z,69.33
2023-03-02T17:38:52.062Z,68.59
2023-03-02T17:41:20.337Z,64.73
2023-03-02T17:43:48.507Z,61.74
2023-03-02T17:46:23.295Z,60.43
2023-03-02T17:48:54.478Z,56.75
2023-03-02T17:51:23.676Z,57.28
2023-03-02T17:53:52.767Z,58.30
2023-03-02T17:56:24.309Z,60.82
2023-03-02T17:58:56.587Z,64.45
2023-03-02T18:01:25.478Z,68.01
2023-03-02T18:03:53.781Z,68.35
2023-03-02T18:06:22.240Z,66.57
2023-03-02T18:08:51.954Z,66.42
2023-03-02T18:11:22.758Z,64.76
2023-03-02T18:13:51.661Z,63.22
2023-03-02T18:16:19.789Z,58.69
2023-03-02T18:18:48.591Z,55.46
2023-03-02T18:21:18.209Z,56.00
2023-03-02T18:23:47.220Z,57.10
2023-03-02T18:26:15.599Z,58.30
2023-03-02T18:28:43.775Z,60.01
2023-03-02T18:31:14.721Z,64.07
2023-03-02T18:33:43.181Z,67.38
2023-03-02T18:36:11.662Z,67.40
2023-03-02T18:38:40.651Z,65.85
2023-03-02T18:41:10.153Z,65.29
2023-03-02T18:43:40.691Z,63.87
2023-03-02T18:46:13.303Z,63.12
2023-03-02T18:48:41.431Z,63.88
2023-03-02T18:51:09.602Z,61.06
2023-03-02T18:53:38.288Z,58.39
2023-03-02T18:56:06.969Z,56.49
2023-03-02T18:58:35.552Z,57.63
2023-03-02T19:01:04.488Z,58.84
2023-03-02T19:03:35.287Z,62.62
2023-03-02T19:06:04.276Z,66.16
2023-03-02T19:08:32.647Z,66.43
2023-03-02T19:11:01.537Z,65.71
2023-03-02T19:13:29.712Z,64.50
2023-03-02T19:15:58.326Z,63.47
2023-03-02T19:18:26.569Z,61.05
2023-03-02T19:20:55.156Z,61.30
2023-03-02T19:23:24.042Z,61.42
2023-03-02T19:25:52.423Z,58.58
2023-03-02T19:28:21.884Z,55.77
2023-03-02T19:30:51.018Z,56.20
2023-03-02T19:33:19.398Z,57.66
2023-03-02T19:35:47.611Z,59.09
2023-03-02T19:38:15.839Z,62.73
2023-03-02T19:40:44.007Z,67.03
2023-03-02T19:43:12.381Z,67.16
2023-03-02T19:45:40.797Z,66.26
2023-03-02T19:48:13.855Z,64.78
2023-03-02T19:50:43.574Z,64.16
2023-03-02T19:53:14.163Z,63.31
2023-03-02T19:55:42.870Z,61.55
2023-03-02T19:58:17.231Z,62.30
2023-03-02T20:00:46.325Z,61.16
2023-03-02T20:03:14.866Z,57.68
2023-03-02T20:05:43.236Z,55.27
2023-03-02T20:08:11.521Z,55.71
2023-03-02T20:10:42.714Z,56.86
2023-03-02T20:13:11.545Z,58.28
2023-03-02T20:15:45.346Z,59.40
2023-03-02T20:18:19.662Z,63.78
2023-03-02T20:20:48.839Z,68.19
2023-03-02T20:23:18.083Z,67.79
2023-03-02T20:25:48.343Z,66.38
2023-03-02T20:28:22.670Z,64.82
2023-03-02T20:30:54.725Z,63.37
2023-03-02T20:33:26.617Z,62.94
2023-03-02T20:35:55.338Z,63.02
2023-03-02T20:38:45.590Z,62.18
2023-03-02T20:41:14.990Z,61.28
2023-03-02T20:43:43.581Z,57.93
2023-03-02T20:46:30.376Z,55.30
2023-03-02T20:48:59.071Z,55.13
2023-03-02T20:51:27.647Z,57.16
2023-03-02T20:53:56.667Z,58.45
2023-03-02T20:56:25.020Z,60.11
2023-03-02T20:58:53.196Z,66.28
2023-03-02T21:01:23.899Z,68.79
2023-03-02T21:03:52.092Z,69.05
2023-03-02T21:06:20.271Z,68.97
2023-03-02T21:08:49.156Z,66.74
2023-03-02T21:11:19.827Z,65.93
2023-03-02T21:13:48.790Z,64.91
2023-03-02T21:16:26.778Z,63.89
2023-03-02T21:18:56.485Z,62.97
2023-03-02T21:21:40.422Z,61.77
2023-03-02T21:24:11.845Z,58.51
2023-03-02T21:26:41.779Z,56.01
2023-03-02T21:29:12.325Z,56.28
2023-03-02T21:31:42.435Z,57.20
2023-03-02T21:34:14.025Z,59.15
2023-03-02T21:36:43.517Z,62.73
2023-03-02T21:39:12.904Z,67.16
2023-03-02T21:41:41.066Z,67.77
2023-03-02T21:44:09.565Z,67.07
2023-03-02T21:46:38.581Z,66.23
2023-03-02T21:49:07.225Z,65.28
2023-03-02T21:51:35.596Z,64.37
2023-03-02T21:54:03.877Z,63.46
2023-03-02T21:56:32.042Z,62.74
2023-03-02T21:59:00.350Z,62.51
2023-03-02T22:01:30.022Z,63.12
2023-03-02T22:03:59.505Z,58.06
2023-03-02T22:06:30.677Z,54.48
2023-03-02T22:08:59.357Z,55.10
2023-03-02T22:11:30.292Z,56.69
2023-03-02T22:14:01.536Z,57.99
2023-03-02T22:16:36.295Z,58.73
2023-03-02T22:19:20.104Z,62.97
2023-03-02T22:21:49.621Z,67.87
2023-03-02T22:24:30.074Z,67.91
2023-03-02T22:26:58.752Z,67.24
2023-03-02T22:29:33.649Z,66.29
2023-03-02T22:32:15.936Z,65.19
2023-03-02T22:34:45.803Z,64.27
2023-03-02T22:37:20.017Z,63.06
2023-03-02T22:39:50.042Z,62.16
2023-03-02T22:42:20.564Z,61.41
2023-03-02T22:45:10.150Z,61.41
2023-03-02T22:47:39.226Z,62.25
2023-03-02T22:50:29.411Z,60.67
2023-03-02T22:52:58.713Z,57.87
2023-03-02T22:55:40.116Z,56.07
2023-03-02T22:58:28.846Z,56.30
2023-03-02T23:01:01.594Z,57.39
2023-03-02T23:03:38.891Z,61.88
2023-03-02T23:06:35.449Z,66.26
2023-03-02T23:09:05.594Z,67.42
2023-03-02T23:11:37.724Z,67.09
2023-03-02T23:14:28.848Z,66.02
2023-03-02T23:17:00.916Z,65.32
2023-03-02T23:19:30.925Z,64.44
2023-03-02T23:21:59.715Z,63.98
2023-03-02T23:24:27.982Z,63.43
2023-03-02T23:26:56.361Z,62.52
2023-03-02T23:29:24.431Z,61.37
2023-03-02T23:31:52.767Z,60.95
2023-03-02T23:34:21.084Z,58.40
2023-03-02T23:36:49.356Z,55.80
2023-03-02T23:39:17.844Z,56.11
2023-03-02T23:41:46.054Z,58.32
2023-03-02T23:44:14.385Z,59.55
2023-03-02T23:46:42.554Z,63.39
2023-03-02T23:49:10.826Z,67.46
2023-03-02T23:51:39.204Z,68.01
2023-03-02T23:54:07.579Z,67.59
2023-03-02T23:56:35.852Z,66.82
2023-03-02T23:59:04.137Z,66.17
